createdAt,value
2023-01-04T00:00:15.151Z,63.16
2023-01-04T00:02:43.273Z,63.11
2023-01-04T00:05:11.422Z,63.18
2023-01-04T00:07:39.506Z,63.11
2023-01-04T00:10:08.749Z,63.90
2023-01-04T00:12:38.179Z,63.30
2023-01-04T00:15:07.931Z,63.19
2023-01-04T00:17:35.960Z,63.59
2023-01-04T00:20:04.119Z,63.60
2023-01-04T00:22:35.054Z,62.89
2023-01-04T00:25:03.185Z,63.45
2023-01-04T00:27:31.193Z,63.10
2023-01-04T00:30:00.551Z,63.88
2023-01-04T00:32:28.702Z,63.30
2023-01-04T00:34:56.680Z,64.12
2023-01-04T00:37:24.708Z,64.23
2023-01-04T00:39:52.732Z,63.80
2023-01-04T00:42:20.775Z,64.30
2023-01-04T00:44:48.814Z,63.93
2023-01-04T00:47:18.165Z,64.85
2023-01-04T00:49:46.235Z,64.93
2023-01-04T00:52:14.247Z,64.26
2023-01-04T00:54:42.233Z,64.81
2023-01-04T00:57:10.273Z,64.35
2023-01-04T00:59:38.297Z,64.64
2023-01-04T01:02:06.452Z,64.82
2023-01-04T01:04:36.227Z,64.70
2023-01-04T01:07:04.267Z,65.19
2023-01-04T01:09:32.248Z,64.67
2023-01-04T01:12:00.342Z,64.96
2023-01-04T01:14:28.411Z,65.14
2023-01-04T01:16:58.103Z,65.27
2023-01-04T01:19:28.950Z,65.73
2023-01-04T01:21:58.908Z,65.55
2023-01-04T01:24:28.092Z,64.79
2023-01-04T01:26:56.715Z,65.64
2023-01-04T01:29:24.900Z,65.66
2023-01-04T01:31:53.302Z,65.03
2023-01-04T01:34:21.511Z,65.67
2023-01-04T01:36:49.882Z,65.61
2023-01-04T01:39:19.359Z,65.65
2023-01-04T01:41:47.392Z,64.91
2023-01-04T01:45:10.819Z,64.68
2023-01-04T01:47:43.763Z,65.06
2023-01-04T01:50:27.245Z,64.92
2023-01-04T01:52:57.141Z,65.30
2023-01-04T01:55:27.831Z,64.72
2023-01-04T01:57:56.623Z,65.83
2023-01-04T02:00:24.649Z,64.88
2023-01-04T02:03:03.678Z,64.60
2023-01-04T02:05:33.602Z,64.63
2023-01-04T02:08:03.614Z,64.55
2023-01-04T02:10:34.162Z,65.19
2023-01-04T02:13:33.340Z,64.52
2023-01-04T02:16:15.841Z,64.75
2023-01-04T02:18:59.186Z,64.16
2023-01-04T02:21:43.548Z,64.63
2023-01-04T02:24:47.049Z,65.13
2023-01-04T02:27:40.800Z,64.41
2023-01-04T02:30:52.692Z,64.64
2023-01-04T02:33:41.471Z,64.26
2023-01-04T02:36:20.058Z,64.19
2023-01-04T02:39:03.354Z,65.24
2023-01-04T02:41:35.825Z,64.84
2023-01-04T02:44:30.194Z,64.45
2023-01-04T02:47:05.544Z,64.68
2023-01-04T02:49:52.643Z,64.54
2023-01-04T02:52:45.965Z,64.74
2023-01-04T02:55:14.026Z,64.75
2023-01-04T02:57:53.363Z,65.00
2023-01-04T03:00:35.788Z,64.06
2023-01-04T03:03:36.500Z,64.66
2023-01-04T03:06:17.258Z,64.75
2023-01-04T03:08:57.020Z,64.77
2023-01-04T03:11:49.747Z,64.58
2023-01-04T03:14:31.933Z,64.75
2023-01-04T03:17:05.462Z,63.98
2023-01-04T03:19:55.836Z,63.93
2023-01-04T03:22:52.517Z,64.24
2023-01-04T03:28:33.789Z,64.32
2023-01-04T03:31:26.544Z,64.18
2023-01-04T03:34:12.141Z,64.22
2023-01-04T03:36:53.432Z,64.33
2023-01-04T03:40:16.586Z,64.44
2023-01-04T03:43:09.721Z,63.51
2023-01-04T03:46:02.363Z,64.46
2023-01-04T03:48:37.010Z,63.99
2023-01-04T03:51:15.437Z,64.33
2023-01-04T03:53:55.337Z,64.09
2023-01-04T03:56:27.273Z,65.09
2023-01-04T03:58:55.739Z,64.60
2023-01-04T04:01:26.896Z,64.25
2023-01-04T04:04:12.999Z,63.96
2023-01-04T04:06:58.961Z,64.69
2023-01-04T04:09:27.143Z,63.78
2023-01-04T04:11:56.736Z,64.55
2023-01-04T04:14:25.073Z,64.42
2023-01-04T04:16:53.169Z,64.10
2023-01-04T04:19:21.914Z,64.24
2023-01-04T04:21:49.901Z,64.52
2023-01-04T04:24:21.008Z,63.77
2023-01-04T04:26:49.938Z,63.74
2023-01-04T04:29:19.329Z,63.34
2023-01-04T04:31:47.613Z,64.14
2023-01-04T04:34:15.764Z,64.27
2023-01-04T04:36:43.753Z,63.53
2023-01-04T04:39:12.619Z,63.61
2023-01-04T04:41:39.962Z,64.06
2023-01-04T04:44:10.208Z,64.36
2023-01-04T04:46:39.954Z,64.25
2023-01-04T04:49:09.234Z,63.75
2023-01-04T04:51:38.747Z,63.88
2023-01-04T04:54:07.983Z,63.49
2023-01-04T04:56:36.890Z,63.69
2023-01-04T04:59:06.194Z,63.10
2023-01-04T05:01:35.310Z,63.58
2023-01-04T05:04:05.397Z,63.80
2023-01-04T05:06:33.808Z,63.53
2023-01-04T05:09:02.032Z,63.51
2023-01-04T05:11:52.746Z,63.24
2023-01-04T05:14:20.830Z,63.56
2023-01-04T05:16:48.918Z,62.94
2023-01-04T05:19:18.485Z,63.16
2023-01-04T05:21:46.623Z,62.72
2023-01-04T05:24:14.836Z,62.87
2023-01-04T05:26:42.857Z,62.63
2023-01-04T05:29:31.232Z,62.96
2023-01-04T05:31:58.406Z,63.25
2023-01-04T05:34:27.784Z,63.02
2023-01-04T05:36:55.810Z,63.25
2023-01-04T05:39:23.895Z,62.97
2023-01-04T05:42:09.553Z,62.93
2023-01-04T05:44:37.650Z,63.06
2023-01-04T05:47:11.083Z,62.68
2023-01-04T05:49:44.288Z,63.05
2023-01-04T05:52:12.616Z,62.91
2023-01-04T05:54:40.702Z,62.76
2023-01-04T05:57:09.164Z,62.72
2023-01-04T05:59:41.895Z,63.19
2023-01-04T06:02:18.605Z,62.68
2023-01-04T06:04:54.667Z,62.90
2023-01-04T06:07:26.320Z,62.56
2023-01-04T06:09:54.383Z,62.67
2023-01-04T06:12:22.748Z,62.80
2023-01-04T06:14:50.849Z,62.85
2023-01-04T06:17:21.980Z,62.65
2023-01-04T06:19:51.494Z,63.33
2023-01-04T06:22:20.374Z,62.94
2023-01-04T06:24:48.751Z,62.60
2023-01-04T06:27:17.117Z,63.16
2023-01-04T06:29:45.120Z,62.80
2023-01-04T06:32:13.166Z,62.50
2023-01-04T06:34:41.217Z,62.45
2023-01-04T06:37:10.821Z,62.19
2023-01-04T06:39:39.077Z,61.77
2023-01-04T06:42:27.531Z,61.95
2023-01-04T06:44:55.533Z,62.34
2023-01-04T06:47:23.660Z,62.23
2023-01-04T06:49:51.665Z,61.53
2023-01-04T06:52:21.399Z,61.81
2023-01-04T06:54:49.418Z,61.94
2023-01-04T06:57:17.488Z,61.92
2023-01-04T06:59:45.485Z,61.61
2023-01-04T07:02:16.197Z,61.77
2023-01-04T07:04:45.398Z,62.08
2023-01-04T07:07:13.493Z,62.05
2023-01-04T07:09:42.877Z,62.36
2023-01-04T07:12:10.954Z,62.15
2023-01-04T07:14:39.006Z,61.65
2023-01-04T07:17:07.153Z,61.94
2023-01-04T07:19:35.147Z,61.97
2023-01-04T07:22:03.339Z,62.40
2023-01-04T07:24:31.443Z,62.69
2023-01-04T07:27:01.916Z,63.33
2023-01-04T07:29:30.093Z,64.31
2023-01-04T07:31:58.431Z,64.41
2023-01-04T07:34:28.384Z,63.87
2023-01-04T07:36:56.649Z,64.45
2023-01-04T07:39:24.988Z,64.84
2023-01-04T07:41:53.045Z,65.00
2023-01-04T07:44:25.665Z,65.12
2023-01-04T07:46:53.841Z,65.07
2023-01-04T07:49:22.261Z,64.98
2023-01-04T07:51:50.854Z,65.28
2023-01-04T07:54:19.742Z,64.91
2023-01-04T07:56:48.715Z,64.47
2023-01-04T07:59:18.812Z,64.84
2023-01-04T08:01:50.908Z,64.42
2023-01-04T08:04:23.838Z,64.50
2023-01-04T08:06:53.439Z,64.70
2023-01-04T08:09:21.826Z,65.11
2023-01-04T08:11:49.817Z,64.89
2023-01-04T08:14:17.825Z,65.09
2023-01-04T08:16:47.181Z,65.38
2023-01-04T08:19:19.192Z,65.78
2023-01-04T08:21:48.601Z,66.44
2023-01-04T08:24:18.789Z,66.19
2023-01-04T08:26:47.954Z,65.82
2023-01-04T08:29:16.056Z,66.00
2023-01-04T08:31:44.162Z,65.55
2023-01-04T08:34:14.761Z,65.41
2023-01-04T08:36:54.593Z,65.72
2023-01-04T08:39:22.751Z,65.16
2023-01-04T08:44:42.256Z,64.96
2023-01-04T08:47:10.227Z,64.85
2023-01-04T08:49:39.604Z,64.84
2023-01-04T08:52:10.020Z,64.90
2023-01-04T08:54:38.033Z,64.04
2023-01-04T08:57:06.070Z,63.76
2023-01-04T08:59:34.086Z,63.64
2023-01-04T09:02:05.689Z,63.33
2023-01-04T09:04:34.513Z,63.19
2023-01-04T09:07:04.038Z,63.52
2023-01-04T09:09:32.351Z,63.41
2023-01-04T09:12:00.470Z,63.08
2023-01-04T09:14:28.724Z,63.07
2023-01-04T09:16:57.028Z,63.43
2023-01-04T09:19:25.104Z,62.83
2023-01-04T09:21:53.432Z,62.65
2023-01-04T09:24:23.448Z,62.83
2023-01-04T09:26:51.875Z,62.55
2023-01-04T09:29:20.019Z,62.49
2023-01-04T09:31:48.602Z,62.58
2023-01-04T09:34:17.903Z,62.65
2023-01-04T09:36:49.400Z,62.32
2023-01-04T09:39:22.916Z,62.13
2023-01-04T09:41:58.465Z,62.13
2023-01-04T09:45:21.230Z,61.50
2023-01-04T09:47:38.547Z,62.00
2023-01-04T09:50:14.593Z,61.92
2023-01-04T09:52:56.118Z,61.92
2023-01-04T09:55:38.173Z,61.78
2023-01-04T09:58:24.397Z,61.66
2023-01-04T10:01:22.266Z,61.50
2023-01-04T10:04:00.744Z,61.88
2023-01-04T10:06:35.261Z,61.15
2023-01-04T10:09:07.940Z,61.85
2023-01-04T10:11:54.670Z,62.01
2023-01-04T10:14:49.888Z,61.80
2023-01-04T10:21:32.733Z,61.97
2023-01-04T10:24:19.430Z,61.82
2023-01-04T10:26:50.224Z,61.97
2023-01-04T10:29:49.023Z,61.91
2023-01-04T10:32:26.146Z,61.90
2023-01-04T10:34:55.023Z,62.71
2023-01-04T10:37:27.900Z,62.47
2023-01-04T10:39:57.853Z,63.08
2023-01-04T10:42:34.419Z,62.11
2023-01-04T10:45:16.016Z,61.71
2023-01-04T10:47:57.827Z,62.13
2023-01-04T10:50:32.204Z,61.29
2023-01-04T10:53:06.210Z,62.68
2023-01-04T10:56:23.174Z,62.27
2023-01-04T10:58:40.308Z,61.70
2023-01-04T11:01:17.229Z,61.57
2023-01-04T11:03:52.870Z,61.45
2023-01-04T11:06:25.863Z,61.80
2023-01-04T11:09:00.807Z,61.14
2023-01-04T11:11:34.128Z,61.91
2023-01-04T11:14:02.450Z,62.40
2023-01-04T11:16:32.661Z,61.69
2023-01-04T11:19:04.074Z,61.70
2023-01-04T11:21:40.257Z,62.34
2023-01-04T11:27:04.205Z,62.22
2023-01-04T11:29:41.528Z,62.18
2023-01-04T11:32:20.470Z,61.84
2023-01-04T11:34:53.024Z,62.18
2023-01-04T11:37:33.500Z,61.95
2023-01-04T11:40:24.719Z,61.98
2023-01-04T11:43:11.860Z,62.02
2023-01-04T11:45:40.141Z,61.38
2023-01-04T11:48:16.444Z,61.69
2023-01-04T11:50:47.428Z,61.08
2023-01-04T11:53:29.034Z,61.22
2023-01-04T11:56:18.821Z,61.44
2023-01-04T11:59:12.333Z,61.59
2023-01-04T12:01:43.280Z,61.41
2023-01-04T12:04:16.568Z,61.73
2023-01-04T12:06:51.727Z,61.28
2023-01-04T12:09:21.796Z,61.14
2023-01-04T12:11:52.598Z,61.41
2023-01-04T12:14:26.720Z,61.63
2023-01-04T12:17:05.733Z,61.72
2023-01-04T12:19:37.351Z,61.20
2023-01-04T12:22:26.019Z,61.51
2023-01-04T12:25:00.400Z,61.38
2023-01-04T12:27:29.485Z,62.30
2023-01-04T12:30:01.200Z,62.16
2023-01-04T12:32:47.854Z,62.46
2023-01-04T12:36:04.132Z,62.09
2023-01-04T12:39:06.960Z,61.47
2023-01-04T12:42:33.339Z,61.94
2023-01-04T12:45:24.378Z,62.05
2023-01-04T12:48:12.722Z,62.01
2023-01-04T12:51:33.899Z,61.32
2023-01-04T12:54:05.661Z,62.54
2023-01-04T12:57:25.710Z,62.00
2023-01-04T12:59:59.720Z,61.29
2023-01-04T13:02:30.453Z,62.05
2023-01-04T13:05:53.285Z,61.85
2023-01-04T13:07:53.095Z,62.35
2023-01-04T13:10:31.811Z,61.69
2023-01-04T13:13:24.636Z,61.45
2023-01-04T13:16:04.975Z,61.90
2023-01-04T13:18:38.921Z,61.43
2023-01-04T13:21:14.599Z,61.78
2023-01-04T13:23:51.529Z,61.31
2023-01-04T13:26:40.319Z,62.24
2023-01-04T13:29:22.224Z,62.37
2023-01-04T13:31:56.795Z,61.92
2023-01-04T13:34:31.354Z,62.18
2023-01-04T13:37:18.190Z,62.12
2023-01-04T13:39:50.255Z,62.58
2023-01-04T13:42:27.088Z,61.98
2023-01-04T13:45:33.012Z,62.57
2023-01-04T13:48:06.539Z,62.57
2023-01-04T13:50:37.960Z,62.76
2023-01-04T13:53:08.413Z,62.43
2023-01-04T13:55:39.373Z,61.62
2023-01-04T13:58:18.028Z,61.68
2023-01-04T14:00:49.830Z,62.29
2023-01-04T14:03:33.357Z,62.70
2023-01-04T14:06:15.937Z,62.26
2023-01-04T14:08:51.219Z,62.32
2023-01-04T14:11:44.185Z,62.08
2023-01-04T14:14:29.561Z,61.75
2023-01-04T14:17:18.929Z,61.92
2023-01-04T14:19:53.717Z,61.87
2023-01-04T14:22:51.365Z,61.87
2023-01-04T14:25:56.132Z,62.37
2023-01-04T14:28:49.984Z,61.86
2023-01-04T14:31:35.795Z,62.30
2023-01-04T14:34:09.452Z,62.48
2023-01-04T14:36:41.331Z,61.90
2023-01-04T14:39:35.445Z,62.71
2023-01-04T14:42:05.034Z,62.35
2023-01-04T14:44:36.173Z,62.12
2023-01-04T14:47:07.285Z,61.92
2023-01-04T14:49:35.612Z,61.89
2023-01-04T14:52:10.265Z,61.74
2023-01-04T14:54:39.583Z,61.37
2023-01-04T14:57:07.623Z,61.70
2023-01-04T14:59:37.021Z,62.05
2023-01-04T15:02:05.207Z,61.89
2023-01-04T15:04:33.316Z,61.98
2023-01-04T15:07:02.234Z,62.08
2023-01-04T15:09:31.358Z,62.12
2023-01-04T15:11:59.982Z,62.12
2023-01-04T15:14:28.080Z,62.05
2023-01-04T15:16:57.628Z,61.96
2023-01-04T15:19:25.780Z,61.89
2023-01-04T15:21:53.835Z,62.27
2023-01-04T15:24:22.070Z,61.64
2023-01-04T15:26:51.022Z,61.85
2023-01-04T15:29:19.981Z,61.59
2023-01-04T15:31:48.086Z,62.10
2023-01-04T15:34:18.012Z,62.29
2023-01-04T15:36:46.133Z,61.97
2023-01-04T15:39:15.517Z,62.50
2023-01-04T15:42:02.308Z,62.90
2023-01-04T15:44:30.361Z,62.78
2023-01-04T15:46:59.470Z,62.93
2023-01-04T15:49:31.358Z,62.68
2023-01-04T15:51:59.487Z,63.08
2023-01-04T15:54:28.640Z,62.29
2023-01-04T15:56:57.360Z,62.95
2023-01-04T15:59:25.795Z,62.78
2023-01-04T16:01:54.009Z,62.77
2023-01-04T16:04:23.091Z,62.87
2023-01-04T16:06:52.587Z,63.44
2023-01-04T16:09:20.633Z,63.71
2023-01-04T16:12:06.063Z,62.88
2023-01-04T16:14:36.791Z,62.68
2023-01-04T16:17:04.879Z,62.89
2023-01-04T16:19:34.215Z,63.23
2023-01-04T16:22:03.743Z,62.29
2023-01-04T16:27:20.406Z,62.11
2023-01-04T16:29:50.813Z,62.15
2023-01-04T16:32:19.836Z,62.88
2023-01-04T16:34:49.595Z,62.14
2023-01-04T16:37:19.578Z,62.32
2023-01-04T16:40:06.412Z,61.81
2023-01-04T16:42:35.372Z,61.89
2023-01-04T16:45:03.474Z,61.89
2023-01-04T16:47:41.118Z,62.01
2023-01-04T16:50:10.606Z,62.16
2023-01-04T16:52:40.637Z,61.72
2023-01-04T16:55:10.736Z,62.10
2023-01-04T16:57:38.939Z,62.61
2023-01-04T17:00:08.788Z,62.41
2023-01-04T17:02:36.875Z,62.64
2023-01-04T17:05:05.920Z,62.12
2023-01-04T17:07:34.668Z,62.78
2023-01-04T17:10:05.756Z,62.49
2023-01-04T17:12:47.157Z,61.83
2023-01-04T17:15:42.371Z,62.05
2023-01-04T17:18:04.720Z,62.06
2023-01-04T17:20:32.828Z,62.33
2023-01-04T17:23:01.340Z,61.97
2023-01-04T17:25:30.799Z,62.38
2023-01-04T17:27:58.973Z,62.35
2023-01-04T17:30:27.017Z,62.16
2023-01-04T17:32:55.433Z,61.73
2023-01-04T17:35:23.703Z,62.00
2023-01-04T17:37:52.284Z,62.19
2023-01-04T17:40:23.218Z,62.39
2023-01-04T17:42:54.079Z,62.33
2023-01-04T17:45:22.964Z,62.93
2023-01-04T17:47:51.121Z,62.47
2023-01-04T17:50:20.556Z,62.37
2023-01-04T17:52:50.597Z,62.13
2023-01-04T17:55:19.147Z,62.40
2023-01-04T17:57:47.494Z,62.85
2023-01-04T18:00:18.261Z,63.10
2023-01-04T18:02:47.164Z,63.31
2023-01-04T18:05:15.326Z,63.57
2023-01-04T18:07:43.423Z,63.55
2023-01-04T18:10:21.352Z,64.06
2023-01-04T18:13:02.131Z,64.50
2023-01-04T18:15:31.589Z,65.61
2023-01-04T18:17:59.751Z,65.21
2023-01-04T18:20:28.255Z,65.20
2023-01-04T18:22:56.302Z,65.21
2023-01-04T18:25:24.528Z,65.91
2023-01-04T18:27:53.351Z,66.39
2023-01-04T18:30:21.402Z,65.84
2023-01-04T18:32:50.891Z,65.96
2023-01-04T18:35:19.176Z,65.82
2023-01-04T18:37:47.435Z,66.82
2023-01-04T18:40:15.547Z,66.90
2023-01-04T18:42:48.697Z,67.06
2023-01-04T18:45:17.476Z,67.29
2023-01-04T18:47:47.428Z,66.97
2023-01-04T18:50:18.903Z,67.04
2023-01-04T18:52:46.938Z,67.25
2023-01-04T18:55:15.247Z,67.55
2023-01-04T18:57:43.536Z,67.61
2023-01-04T19:00:13.571Z,68.34
2023-01-04T19:02:41.986Z,68.18
2023-01-04T19:05:11.182Z,68.31
2023-01-04T19:07:41.457Z,68.75
2023-01-04T19:10:10.421Z,68.34
2023-01-04T19:12:39.069Z,68.51
2023-01-04T19:15:09.846Z,68.60
2023-01-04T19:17:38.729Z,68.68
2023-01-04T19:20:08.313Z,69.21
2023-01-04T19:22:36.446Z,68.98
2023-01-04T19:25:07.409Z,69.28
2023-01-04T19:27:35.987Z,70.01
2023-01-04T19:30:11.354Z,70.18
2023-01-04T19:32:39.500Z,70.03
2023-01-04T19:35:11.054Z,70.65
2023-01-04T19:37:39.156Z,70.95
2023-01-04T19:40:10.453Z,71.59
2023-01-04T19:42:39.692Z,71.51
2023-01-04T19:45:10.803Z,72.14
2023-01-04T19:47:40.177Z,72.19
2023-01-04T19:50:09.882Z,72.12
2023-01-04T19:52:38.843Z,72.47
2023-01-04T19:55:09.608Z,72.77
2023-01-04T19:57:38.287Z,72.35
2023-01-04T20:00:10.811Z,71.94
2023-01-04T20:02:39.202Z,72.13
2023-01-04T20:05:11.033Z,72.06
2023-01-04T20:07:39.231Z,72.15
2023-01-04T20:10:14.167Z,72.11
2023-01-04T20:12:43.364Z,72.43
2023-01-04T20:15:13.413Z,73.46
2023-01-04T20:17:42.156Z,73.05
2023-01-04T20:20:10.967Z,72.46
2023-01-04T20:22:41.653Z,72.83
2023-01-04T20:25:11.773Z,72.50
2023-01-04T20:27:39.903Z,72.48
2023-01-04T20:30:10.321Z,72.97
2023-01-04T20:32:38.985Z,72.81
2023-01-04T20:35:08.489Z,72.68
2023-01-04T20:37:36.990Z,72.10
2023-01-04T20:40:06.102Z,72.69
2023-01-04T20:42:53.691Z,72.37
2023-01-04T20:45:21.724Z,72.54
2023-01-04T20:47:49.809Z,72.79
2023-01-04T20:50:18.040Z,71.83
2023-01-04T20:52:46.218Z,72.25
2023-01-04T20:55:17.580Z,72.51
2023-01-04T20:57:47.248Z,72.53
2023-01-04T21:00:16.624Z,72.14
2023-01-04T21:02:44.814Z,71.60
2023-01-04T21:05:13.147Z,71.90
2023-01-04T21:07:41.497Z,72.12
2023-01-04T21:10:09.932Z,72.15
2023-01-04T21:12:38.819Z,71.34
2023-01-04T21:15:09.645Z,71.36
2023-01-04T21:17:38.228Z,70.70
2023-01-04T21:20:07.823Z,70.94
2023-01-04T21:22:36.061Z,71.33
2023-01-04T21:25:04.242Z,71.29
2023-01-04T21:27:32.460Z,71.75
2023-01-04T21:30:00.628Z,71.22
2023-01-04T21:32:30.514Z,71.35
2023-01-04T21:34:58.615Z,70.84
2023-01-04T21:37:26.683Z,70.56
2023-01-04T21:39:54.720Z,71.12
2023-01-04T21:42:22.803Z,71.32
2023-01-04T21:44:51.722Z,70.37
2023-01-04T21:47:19.790Z,70.79
2023-01-04T21:49:50.525Z,71.03
2023-01-04T21:52:18.660Z,71.34
2023-01-04T21:54:46.696Z,70.86
2023-01-04T21:57:15.161Z,70.96
2023-01-04T21:59:43.363Z,70.67
2023-01-04T22:02:17.398Z,70.77
2023-01-04T22:04:48.309Z,69.93
2023-01-04T22:07:18.603Z,69.99
2023-01-04T22:09:46.727Z,69.60
2023-01-04T22:12:14.830Z,69.75
2023-01-04T22:14:42.914Z,69.49
2023-01-04T22:17:11.021Z,69.59
2023-01-04T22:19:39.336Z,70.04
2023-01-04T22:22:07.682Z,69.21
2023-01-04T22:24:38.209Z,69.41
2023-01-04T22:27:06.723Z,69.34
2023-01-04T22:29:34.891Z,69.92
2023-01-04T22:32:03.040Z,69.75
2023-01-04T22:34:31.560Z,69.39
2023-01-04T22:36:59.732Z,69.35
2023-01-04T22:39:28.312Z,69.23
2023-01-04T22:41:57.727Z,69.67
2023-01-04T22:44:25.967Z,69.53
2023-01-04T22:46:54.186Z,69.88
2023-01-04T22:49:22.438Z,69.73
2023-01-04T22:51:50.982Z,69.34
2023-01-04T22:54:19.004Z,69.33
2023-01-04T22:56:47.124Z,69.95
2023-01-04T22:59:16.605Z,69.72
2023-01-04T23:01:46.288Z,68.98
2023-01-04T23:04:17.849Z,69.09
2023-01-04T23:06:46.765Z,69.24
2023-01-04T23:09:18.090Z,69.18
2023-01-04T23:11:46.709Z,69.30
2023-01-04T23:14:18.840Z,69.17
2023-01-04T23:16:47.233Z,69.71
2023-01-04T23:19:16.346Z,69.20
2023-01-04T23:21:44.498Z,68.78
2023-01-04T23:24:15.292Z,69.38
2023-01-04T23:26:44.940Z,69.20
2023-01-04T23:29:13.130Z,69.31
2023-01-04T23:31:42.909Z,69.18
2023-01-04T23:34:13.362Z,69.55
2023-01-04T23:36:43.070Z,69.99
2023-01-04T23:39:15.214Z,70.00
2023-01-04T23:41:47.915Z,69.71
2023-01-04T23:44:19.661Z,70.25
2023-01-04T23:46:53.897Z,70.52
2023-01-04T23:49:22.921Z,70.35
2023-01-04T23:51:51.941Z,69.86
2023-01-04T23:54:21.037Z,70.08
2023-01-04T23:56:49.184Z,69.93
2023-01-04T23:59:17.226Z,69.43
